Arkansaw, Wisconsin
Current Conditions -  °F | °C
As of 9:35 PM on Wednesday 22 Oct 2014 (Local Time) from KLUM Reporting Station
Scattered Clouds Scattered Clouds  
Wind Chill: 10°   Ceiling: Unl
Heat Index: 10°   Visibility: 10mi
Dew Point:   Wind: 6mph
Humidity: 72%   Direction: 100°E
Pressure: 30.11"   Gusts: NA
Location:  44.63°N, 92.03°W
Report Text: KLUM 230235Z AUTO 10005KT 10SM SCT065 SCT080 10/06 A3011 RMK AO2 T01030055
Loading
Personal Weather Stations






























Interactive Weather Map
Tropical Storm Tracking
New forecast layout! Learn more

10-Day Weather Forecast

Advertisements
Track Severe Weather on mobile